createdAt,value
2018-12-19T00:00:26.760Z,19.90
2018-12-19T00:03:00.682Z,17.13
2018-12-19T00:05:34.693Z,17.63
2018-12-19T00:08:08.515Z,17.80
2018-12-19T00:10:42.606Z,17.70
2018-12-19T00:13:18.595Z,17.57
2018-12-19T00:15:52.664Z,17.90
2018-12-19T00:18:26.985Z,18.23
2018-12-19T00:21:01.398Z,16.23
2018-12-19T00:23:35.690Z,16.00
2018-12-19T00:26:09.854Z,17.00
2018-12-19T00:28:43.974Z,16.70
2018-12-19T00:31:17.713Z,16.73
2018-12-19T00:33:51.517Z,16.83
2018-12-19T00:36:25.103Z,17.73
2018-12-19T00:38:59.098Z,16.70
2018-12-19T00:41:33.069Z,16.17
2018-12-19T00:44:06.867Z,15.90
2018-12-19T00:46:40.769Z,16.43
2018-12-19T00:49:14.510Z,17.43
2018-12-19T00:54:26.184Z,17.50
2018-12-19T00:57:00.024Z,18.17
2018-12-19T00:59:33.997Z,17.30
2018-12-19T01:02:08.020Z,15.80
2018-12-19T01:04:47.965Z,16.83
2018-12-19T01:07:17.886Z,17.20
2018-12-19T01:09:52.157Z,16.87
2018-12-19T01:12:26.586Z,16.43
2018-12-19T01:15:01.228Z,16.37
2018-12-19T01:17:35.309Z,16.17
2018-12-19T01:20:10.037Z,16.87
2018-12-19T01:22:44.119Z,16.50
2018-12-19T01:25:18.105Z,17.03
2018-12-19T01:27:58.055Z,15.97
2018-12-19T01:31:37.418Z,15.03
2018-12-19T01:37:23.376Z,16.40
2018-12-19T01:39:57.950Z,15.57
2018-12-19T01:42:32.965Z,15.97
2018-12-19T01:45:07.699Z,16.30
2018-12-19T01:47:42.007Z,16.40
2018-12-19T01:50:16.109Z,15.80
2018-12-19T01:52:50.341Z,16.13
2018-12-19T01:55:25.042Z,15.23
2018-12-19T01:58:01.432Z,15.30
2018-12-19T02:00:35.378Z,16.40
2018-12-19T02:03:09.582Z,16.37
2018-12-19T02:05:43.534Z,17.90
2018-12-19T02:08:29.253Z,15.97
2018-12-19T02:11:11.597Z,16.60
2018-12-19T02:13:46.028Z,16.83
2018-12-19T02:16:36.015Z,16.93
2018-12-19T02:19:10.237Z,15.93
2018-12-19T02:21:44.019Z,16.67
2018-12-19T02:24:18.234Z,17.60
2018-12-19T02:26:53.347Z,16.80
2018-12-19T02:29:28.194Z,16.60
2018-12-19T02:32:06.502Z,16.83
2018-12-19T02:34:40.382Z,17.17
2018-12-19T02:37:14.279Z,16.20
2018-12-19T02:39:48.646Z,16.73
2018-12-19T02:42:23.055Z,17.03
2018-12-19T02:44:57.161Z,17.23
2018-12-19T02:47:31.646Z,17.43
2018-12-19T02:50:06.378Z,16.17
2018-12-19T02:52:43.030Z,16.43
2018-12-19T02:57:55.122Z,17.03
2018-12-19T03:00:29.008Z,16.53
2018-12-19T03:03:07.750Z,16.03
2018-12-19T03:05:43.235Z,16.80
2018-12-19T03:08:18.274Z,15.77
2018-12-19T03:10:52.223Z,15.57
2018-12-19T03:13:28.074Z,16.30
2018-12-19T03:18:48.730Z,16.00
2018-12-19T03:21:23.226Z,15.80
2018-12-19T03:23:57.353Z,16.30
2018-12-19T03:26:33.890Z,15.70
2018-12-19T03:29:07.942Z,16.47
2018-12-19T03:31:42.601Z,16.03
2018-12-19T03:34:17.150Z,16.27
2018-12-19T03:36:51.092Z,16.37
2018-12-19T03:39:25.308Z,16.30
2018-12-19T03:42:00.287Z,16.00
2018-12-19T03:44:34.891Z,15.97
2018-12-19T03:47:09.508Z,15.47
2018-12-19T03:49:44.319Z,16.23
2018-12-19T03:52:18.791Z,15.60
2018-12-19T03:54:53.270Z,15.10
2018-12-19T03:57:27.370Z,15.43
2018-12-19T04:00:01.796Z,14.33
2018-12-19T04:02:35.821Z,15.13
2018-12-19T04:05:10.762Z,15.30
2018-12-19T04:07:44.796Z,16.10
2018-12-19T04:10:18.791Z,13.77
2018-12-19T04:12:52.727Z,14.40
2018-12-19T04:15:26.617Z,13.93
2018-12-19T04:18:01.212Z,14.53
2018-12-19T04:20:35.314Z,13.87
2018-12-19T04:23:12.816Z,13.77
2018-12-19T04:25:46.905Z,14.47
2018-12-19T04:28:24.015Z,12.97
2018-12-19T04:33:43.975Z,13.23
2018-12-19T04:36:24.221Z,12.33
2018-12-19T04:39:00.258Z,11.93
2018-12-19T04:44:15.408Z,11.60
2018-12-19T04:46:49.636Z,11.90
2018-12-19T04:49:28.423Z,12.33
2018-12-19T04:52:02.600Z,11.83
2018-12-19T04:57:16.951Z,11.77
2018-12-19T04:59:51.042Z,10.90
2018-12-19T05:02:25.122Z,10.47
2018-12-19T05:04:59.345Z,9.63
2018-12-19T05:07:34.356Z,10.57
2018-12-19T05:10:12.422Z,10.47
2018-12-19T05:12:47.087Z,10.70
2018-12-19T05:15:21.672Z,10.27
2018-12-19T05:17:55.652Z,10.90
2018-12-19T05:20:38.356Z,11.27
2018-12-19T05:23:12.314Z,10.23
2018-12-19T05:25:46.614Z,10.17
2018-12-19T05:28:20.728Z,10.20
2018-12-19T05:30:55.058Z,9.77
2018-12-19T05:33:29.444Z,10.47
2018-12-19T05:36:03.629Z,10.77
2018-12-19T05:38:40.452Z,9.90
2018-12-19T05:41:16.178Z,10.43
2018-12-19T05:43:50.676Z,9.90
2018-12-19T05:46:24.646Z,10.20
2018-12-19T05:51:39.814Z,10.23
2018-12-19T05:54:13.889Z,9.97
2018-12-19T05:56:47.869Z,10.10
2018-12-19T05:59:21.635Z,9.87
2018-12-19T06:01:55.670Z,9.83
2018-12-19T06:04:29.645Z,9.90
2018-12-19T06:07:03.564Z,9.60
2018-12-19T06:09:37.650Z,10.50
2018-12-19T06:12:11.642Z,10.00
2018-12-19T06:14:45.628Z,9.63
2018-12-19T06:17:19.569Z,9.83
2018-12-19T06:19:54.361Z,10.53
2018-12-19T06:22:28.266Z,10.03
2018-12-19T06:25:02.491Z,10.03
2018-12-19T06:27:43.429Z,10.30
2018-12-19T06:30:19.090Z,9.80
2018-12-19T06:32:53.676Z,10.20
2018-12-19T06:35:39.541Z,10.33
2018-12-19T06:38:13.946Z,11.47
2018-12-19T06:40:47.944Z,10.90
2018-12-19T06:43:22.066Z,11.03
2018-12-19T06:45:56.187Z,12.40
2018-12-19T06:48:30.478Z,20.20
2018-12-19T06:51:04.279Z,18.80
2018-12-19T06:53:38.388Z,14.27
2018-12-19T06:58:58.121Z,11.57
2018-12-19T07:01:32.225Z,12.03
2018-12-19T07:04:06.511Z,11.23
2018-12-19T07:06:40.709Z,10.90
2018-12-19T07:09:15.679Z,10.53
2018-12-19T07:11:49.749Z,10.93
2018-12-19T07:14:24.095Z,11.03
2018-12-19T07:16:59.138Z,11.90
2018-12-19T07:19:33.553Z,11.10
2018-12-19T07:22:08.311Z,11.33
2018-12-19T07:24:51.971Z,11.47
2018-12-19T07:27:26.683Z,11.00
2018-12-19T07:32:40.594Z,11.00
2018-12-19T07:35:20.499Z,12.00
2018-12-19T07:37:57.832Z,10.90
2018-12-19T07:40:45.672Z,11.30
2018-12-19T07:43:16.904Z,11.50
2018-12-19T07:45:51.493Z,11.60
2018-12-19T07:48:27.177Z,11.47
2018-12-19T07:53:55.975Z,12.20
2018-12-19T07:56:30.498Z,11.57
2018-12-19T08:02:08.659Z,11.30
2018-12-19T08:04:44.270Z,10.67
2018-12-19T08:07:19.038Z,10.80
2018-12-19T08:12:44.232Z,10.73
2018-12-19T08:15:22.000Z,10.33
2018-12-19T08:17:56.624Z,10.80
2018-12-19T08:20:35.728Z,10.73
2018-12-19T08:23:11.035Z,10.60
2018-12-19T08:25:49.200Z,10.43
2018-12-19T08:28:34.630Z,11.07
2018-12-19T08:31:09.379Z,10.97
2018-12-19T08:33:56.683Z,11.10
2018-12-19T08:36:32.316Z,10.97
2018-12-19T08:41:29.951Z,10.17
2018-12-19T08:44:35.766Z,11.00
2018-12-19T08:52:50.819Z,11.60
2018-12-19T09:01:15.588Z,11.37
2018-12-19T09:06:56.867Z,11.57
2018-12-19T09:12:24.129Z,10.20
2018-12-19T09:18:20.257Z,11.57
2018-12-19T09:20:56.104Z,10.93
2018-12-19T09:23:40.162Z,10.70
2018-12-19T09:29:11.295Z,10.10
2018-12-19T09:31:49.811Z,9.43
2018-12-19T09:34:33.134Z,10.17
2018-12-19T09:37:11.646Z,10.00
2018-12-19T09:39:47.510Z,10.20
2018-12-19T09:42:34.203Z,10.10
2018-12-19T09:45:19.739Z,9.83
2018-12-19T09:47:57.864Z,9.30
2018-12-19T09:50:39.857Z,10.67
2018-12-19T09:53:19.832Z,9.07
2018-12-19T09:55:54.659Z,9.60
2018-12-19T09:58:36.240Z,9.43
2018-12-19T10:01:10.716Z,8.50
2018-12-19T10:03:46.556Z,8.40
2018-12-19T10:06:24.274Z,9.67
2018-12-19T10:08:59.038Z,9.47
2018-12-19T10:14:15.803Z,9.13
2018-12-19T10:16:57.271Z,8.60
2018-12-19T10:19:35.979Z,9.50
2018-12-19T10:22:21.187Z,9.20
2018-12-19T10:25:08.957Z,8.60
2018-12-19T10:27:44.401Z,8.73
2018-12-19T10:30:24.449Z,9.13
2018-12-19T10:32:59.801Z,8.50
2018-12-19T10:35:41.579Z,8.60
2018-12-19T10:38:15.933Z,8.40
2018-12-19T10:40:50.808Z,8.47
2018-12-19T10:43:25.775Z,8.67
2018-12-19T10:45:59.713Z,8.20
2018-12-19T10:48:33.628Z,7.97
2018-12-19T10:51:07.853Z,8.60
2018-12-19T10:53:42.056Z,8.10
2018-12-19T10:56:15.873Z,8.80
2018-12-19T10:58:50.630Z,8.00
2018-12-19T11:01:24.997Z,8.13
2018-12-19T11:03:58.831Z,8.03
2018-12-19T11:06:33.076Z,7.97
2018-12-19T11:09:08.644Z,7.93
2018-12-19T11:11:46.749Z,7.77
2018-12-19T11:14:21.605Z,8.00
2018-12-19T11:16:56.194Z,7.13
2018-12-19T11:22:52.113Z,7.37
2018-12-19T11:28:40.955Z,7.07
2018-12-19T11:34:08.882Z,7.33
2018-12-19T11:36:43.572Z,7.33
2018-12-19T11:39:18.922Z,6.77
2018-12-19T11:41:52.746Z,7.03
2018-12-19T11:44:27.371Z,7.07
2018-12-19T11:49:45.577Z,7.23
2018-12-19T11:52:20.020Z,8.10
2018-12-19T11:57:07.508Z,7.97
2018-12-19T11:59:42.318Z,7.43
2018-12-19T12:05:23.717Z,7.93
2018-12-19T12:07:57.649Z,8.17
2018-12-19T12:10:32.190Z,8.33
2018-12-19T12:13:06.400Z,7.83
2018-12-19T12:15:41.796Z,7.83
2018-12-19T12:18:15.972Z,7.13
2018-12-19T12:20:51.109Z,7.23
2018-12-19T12:32:03.659Z,7.40
2018-12-19T12:34:38.588Z,7.43
2018-12-19T12:42:02.492Z,7.60
2018-12-19T12:50:29.603Z,7.20
2018-12-19T12:53:25.002Z,6.67
2018-12-19T12:56:01.640Z,7.07
2018-12-19T12:58:41.419Z,7.17
2018-12-19T13:01:19.501Z,6.90
2018-12-19T13:07:19.225Z,6.60
2018-12-19T13:13:04.012Z,6.80
2018-12-19T13:15:41.270Z,7.07
2018-12-19T13:18:16.540Z,6.80
2018-12-19T13:20:51.011Z,6.90
2018-12-19T13:23:26.883Z,6.50
2018-12-19T13:26:02.782Z,6.50
2018-12-19T13:28:37.261Z,6.70
2018-12-19T13:31:12.607Z,7.27
2018-12-19T13:33:47.130Z,6.67
2018-12-19T13:36:22.265Z,6.50
2018-12-19T13:38:57.001Z,6.80
2018-12-19T13:41:31.829Z,6.40
2018-12-19T13:44:06.347Z,6.70
2018-12-19T13:46:40.942Z,6.67
2018-12-19T13:49:16.402Z,6.60
2018-12-19T13:51:57.288Z,6.37
2018-12-19T13:54:46.822Z,7.20
2018-12-19T13:57:21.481Z,7.17
2018-12-19T13:59:56.107Z,7.23
2018-12-19T14:02:37.592Z,6.97
2018-12-19T14:05:13.022Z,6.43
2018-12-19T14:07:47.536Z,6.90
2018-12-19T14:10:23.001Z,6.83
2018-12-19T14:12:57.907Z,6.33
2018-12-19T14:15:32.868Z,6.70
2018-12-19T14:18:13.223Z,5.80
2018-12-19T14:20:51.922Z,6.57
2018-12-19T14:23:27.801Z,6.33
2018-12-19T14:26:07.743Z,5.97
2018-12-19T14:28:43.187Z,6.20
2018-12-19T14:34:15.574Z,5.70
2018-12-19T14:37:04.005Z,5.73
2018-12-19T14:39:38.135Z,5.73
2018-12-19T14:45:18.846Z,5.73
2018-12-19T14:47:53.527Z,6.03
2018-12-19T14:50:27.736Z,6.00
2018-12-19T14:53:01.779Z,5.67
2018-12-19T14:55:39.300Z,6.20
2018-12-19T14:58:13.556Z,5.90
2018-12-19T15:00:47.441Z,5.40
2018-12-19T15:12:56.585Z,6.50
2018-12-19T15:18:24.630Z,5.90
2018-12-19T15:20:59.500Z,6.63
2018-12-19T15:23:49.106Z,5.67
2018-12-19T15:26:25.534Z,6.43
2018-12-19T15:31:52.837Z,6.53
2018-12-19T15:34:28.407Z,7.17
2018-12-19T15:38:17.747Z,6.73
2018-12-19T15:40:55.869Z,6.53
2018-12-19T15:46:11.891Z,6.77
2018-12-19T15:48:47.937Z,6.50
2018-12-19T15:51:23.309Z,6.93
2018-12-19T15:54:13.177Z,6.43
2018-12-19T15:56:49.857Z,6.63
2018-12-19T15:59:31.724Z,6.70
2018-12-19T16:02:41.855Z,7.03
2018-12-19T16:05:16.438Z,7.33
2018-12-19T16:07:51.006Z,7.20
2018-12-19T16:13:17.023Z,6.63
2018-12-19T16:15:51.423Z,6.70
2018-12-19T16:18:25.972Z,6.83
2018-12-19T16:21:00.315Z,6.97
2018-12-19T16:23:34.985Z,7.10
2018-12-19T16:26:09.370Z,6.90
2018-12-19T16:28:43.681Z,6.83
2018-12-19T16:31:19.215Z,8.37
2018-12-19T16:33:54.858Z,7.40
2018-12-19T16:42:34.252Z,7.60
2018-12-19T16:45:09.958Z,8.00
2018-12-19T16:53:58.125Z,7.63
2018-12-19T16:56:32.731Z,7.83
2018-12-19T16:59:18.609Z,7.97
2018-12-19T17:02:01.753Z,7.77
2018-12-19T17:04:36.148Z,8.53
2018-12-19T17:07:23.070Z,8.23
2018-12-19T17:10:56.769Z,8.80
2018-12-19T17:13:36.123Z,8.63
2018-12-19T17:16:20.204Z,8.37
2018-12-19T17:18:57.427Z,9.20
2018-12-19T17:22:42.957Z,8.77
2018-12-19T17:28:29.076Z,9.20
2018-12-19T17:31:04.911Z,8.93
2018-12-19T17:36:19.478Z,8.90
2018-12-19T17:40:33.203Z,9.53
2018-12-19T17:43:07.657Z,9.57
2018-12-19T17:45:46.874Z,9.93
2018-12-19T17:48:21.185Z,10.07
2018-12-19T17:50:56.036Z,10.60
2018-12-19T17:53:32.052Z,10.77
2018-12-19T17:56:11.313Z,10.10
2018-12-19T17:58:45.488Z,10.63
2018-12-19T18:01:20.782Z,10.87
2018-12-19T18:03:55.279Z,10.80
2018-12-19T18:06:30.772Z,10.53
2018-12-19T18:09:07.053Z,10.70
2018-12-19T18:11:42.382Z,10.53
2018-12-19T18:14:17.722Z,10.70
2018-12-19T18:16:52.443Z,11.23
2018-12-19T18:19:27.056Z,10.67
2018-12-19T18:22:01.780Z,10.80
2018-12-19T18:24:39.760Z,10.57
2018-12-19T18:27:14.483Z,10.97
2018-12-19T18:30:09.003Z,10.63
2018-12-19T18:32:43.269Z,11.17
2018-12-19T18:35:19.366Z,10.77
2018-12-19T18:37:53.408Z,10.53
2018-12-19T18:40:28.606Z,11.93
2018-12-19T18:43:05.627Z,11.50
2018-12-19T18:45:41.865Z,10.93
2018-12-19T18:48:17.411Z,11.23
2018-12-19T18:50:52.854Z,10.70
2018-12-19T18:53:27.335Z,11.50
2018-12-19T18:56:01.856Z,11.63
2018-12-19T18:58:37.620Z,11.57
2018-12-19T19:01:12.572Z,10.87
2018-12-19T19:03:48.341Z,10.70
2018-12-19T19:06:24.993Z,11.07
2018-12-19T19:09:02.397Z,12.13
2018-12-19T19:14:38.458Z,10.70
2018-12-19T19:17:25.131Z,10.77
2018-12-19T19:20:07.877Z,11.27
2018-12-19T19:25:35.531Z,10.73
2018-12-19T19:28:10.271Z,11.40
2018-12-19T19:30:45.847Z,10.70
2018-12-19T19:33:21.554Z,11.70
2018-12-19T19:37:04.792Z,11.07
2018-12-19T19:39:47.568Z,10.97
2018-12-19T19:42:22.151Z,11.40
2018-12-19T19:44:57.720Z,11.83
2018-12-19T19:47:33.457Z,11.17
2018-12-19T19:50:08.925Z,11.07
2018-12-19T19:52:43.768Z,11.83
2018-12-19T19:55:19.090Z,11.60
2018-12-19T19:58:56.941Z,12.03
2018-12-19T20:01:37.929Z,11.53
2018-12-19T20:07:20.052Z,12.27
2018-12-19T20:11:16.444Z,12.00
2018-12-19T20:22:28.796Z,13.10
2018-12-19T20:27:56.081Z,13.23
2018-12-19T20:30:30.876Z,13.63
2018-12-19T20:33:05.566Z,13.27
2018-12-19T20:35:40.215Z,13.90
2018-12-19T20:38:15.809Z,12.87
2018-12-19T20:41:11.879Z,13.43
2018-12-19T20:43:46.302Z,13.70
2018-12-19T20:46:21.618Z,14.40
2018-12-19T20:48:56.665Z,13.13
2018-12-19T20:51:31.230Z,13.70
2018-12-19T20:54:12.885Z,13.77
2018-12-19T20:56:47.097Z,13.57
2018-12-19T20:59:24.521Z,14.10
2018-12-19T21:01:59.095Z,12.77
2018-12-19T21:04:33.952Z,13.47
2018-12-19T21:07:09.240Z,13.43
2018-12-19T21:09:47.500Z,14.03
2018-12-19T21:12:21.790Z,13.90
2018-12-19T21:14:55.864Z,13.80
2018-12-19T21:17:35.551Z,12.67
2018-12-19T21:20:09.691Z,14.47
2018-12-19T21:22:44.890Z,15.10
2018-12-19T21:25:22.600Z,14.17
2018-12-19T21:32:02.164Z,13.30
2018-12-19T21:34:43.231Z,15.30
2018-12-19T21:37:20.798Z,14.70
2018-12-19T21:40:00.189Z,14.90
2018-12-19T21:42:35.375Z,15.90
2018-12-19T21:48:11.041Z,15.73
2018-12-19T21:50:48.904Z,16.53
2018-12-19T21:53:25.330Z,16.47
2018-12-19T21:56:00.422Z,16.53
2018-12-19T21:58:59.202Z,16.97
2018-12-19T22:01:35.367Z,15.87
2018-12-19T22:04:10.717Z,17.33
2018-12-19T22:06:45.533Z,18.53
2018-12-19T22:12:36.027Z,18.70
2018-12-19T22:15:14.748Z,19.27
2018-12-19T22:17:55.442Z,19.10
2018-12-19T22:26:35.556Z,20.07
2018-12-19T22:34:35.709Z,20.63
2018-12-19T22:40:44.717Z,21.60
2018-12-19T22:46:33.138Z,20.93
2018-12-19T22:49:14.175Z,21.03
2018-12-19T23:00:35.875Z,22.47
2018-12-19T23:03:11.848Z,22.63
2018-12-19T23:08:56.574Z,21.57
2018-12-19T23:11:36.675Z,21.93
2018-12-19T23:14:15.453Z,22.40
2018-12-19T23:16:48.400Z,23.90
2018-12-19T23:19:22.251Z,22.33
2018-12-19T23:21:56.343Z,22.60
2018-12-19T23:24:30.302Z,22.83
2018-12-19T23:27:04.414Z,22.23
2018-12-19T23:29:38.297Z,21.87
2018-12-19T23:32:15.377Z,21.67
2018-12-19T23:34:49.483Z,21.57
2018-12-19T23:37:24.729Z,21.83
2018-12-19T23:40:26.765Z,20.90
2018-12-19T23:43:02.622Z,21.57
2018-12-19T23:45:38.128Z,21.93
2018-12-19T23:48:13.080Z,21.27
2018-12-19T23:50:47.350Z,21.40
2018-12-19T23:53:21.989Z,21.50
2018-12-19T23:55:58.690Z,20.00
2018-12-19T23:58:35.652Z,20.37
